sensor_id;sensor_type;location;lat;lon;timestamp;pressure;altitude;pressure_sealevel;temperature;humidity
20955;BME280;10636;19.390;-99.256;2022-08-14T00:00:49;77985.47;;;25.16;48.36
20955;BME280;10636;19.390;-99.256;2022-08-14T00:03:19;77991.44;;;25.15;48.86
20955;BME280;10636;19.390;-99.256;2022-08-14T00:05:48;77987.38;;;25.14;49.24
20955;BME280;10636;19.390;-99.256;2022-08-14T00:08:16;77996.03;;;25.12;49.09
20955;BME280;10636;19.390;-99.256;2022-08-14T00:10:46;77993.31;;;25.10;48.82
20955;BME280;10636;19.390;-99.256;2022-08-14T00:13:26;78001.25;;;25.08;49.48
20955;BME280;10636;19.390;-99.256;2022-08-14T00:15:57;77997.19;;;25.07;49.17
20955;BME280;10636;19.390;-99.256;2022-08-14T00:18:27;78005.25;;;25.07;49.62
20955;BME280;10636;19.390;-99.256;2022-08-14T00:20:56;77990.34;;;25.04;49.70
20955;BME280;10636;19.390;-99.256;2022-08-14T00:23:26;77998.38;;;25.04;49.52
20955;BME280;10636;19.390;-99.256;2022-08-14T00:25:55;77992.94;;;25.02;50.00
20955;BME280;10636;19.390;-99.256;2022-08-14T00:28:26;77994.94;;;25.01;50.16
20955;BME280;10636;19.390;-99.256;2022-08-14T00:30:56;78003.69;;;25.02;49.94
20955;BME280;10636;19.390;-99.256;2022-08-14T00:33:26;78004.44;;;25.04;50.80
20955;BME280;10636;19.390;-99.256;2022-08-14T00:35:55;78006.56;;;25.06;50.73
20955;BME280;10636;19.390;-99.256;2022-08-14T00:38:23;78003.88;;;25.06;50.51
20955;BME280;10636;19.390;-99.256;2022-08-14T00:40:52;78009.13;;;25.04;50.71
20955;BME280;10636;19.390;-99.256;2022-08-14T00:43:21;78009.75;;;25.02;50.83
20955;BME280;10636;19.390;-99.256;2022-08-14T00:45:53;77996.94;;;25.01;50.98
20955;BME280;10636;19.390;-99.256;2022-08-14T00:48:22;78013.03;;;25.01;50.60
20955;BME280;10636;19.390;-99.256;2022-08-14T00:50:51;78012.34;;;25.00;50.84
20955;BME280;10636;19.390;-99.256;2022-08-14T00:53:20;78008.88;;;24.98;51.29
20955;BME280;10636;19.390;-99.256;2022-08-14T00:55:51;78017.03;;;25.00;51.13
20955;BME280;10636;19.390;-99.256;2022-08-14T00:58:22;78014.94;;;24.98;51.31
20955;BME280;10636;19.390;-99.256;2022-08-14T01:01:04;78019.63;;;24.98;51.40
20955;BME280;10636;19.390;-99.256;2022-08-14T01:03:33;78025.00;;;24.98;51.22
20955;BME280;10636;19.390;-99.256;2022-08-14T01:06:03;78035.72;;;24.98;51.29
20955;BME280;10636;19.390;-99.256;2022-08-14T01:08:34;78041.78;;;24.98;51.54
20955;BME280;10636;19.390;-99.256;2022-08-14T01:11:04;78037.09;;;24.99;51.15
20955;BME280;10636;19.390;-99.256;2022-08-14T01:13:35;78031.72;;;24.99;51.49
20955;BME280;10636;19.390;-99.256;2022-08-14T01:16:07;78036.34;;;24.96;51.23
20955;BME280;10636;19.390;-99.256;2022-08-14T01:18:36;78037.09;;;24.99;51.51
20955;BME280;10636;19.390;-99.256;2022-08-14T01:21:24;78045.16;;;24.99;51.72
20955;BME280;10636;19.390;-99.256;2022-08-14T01:23:58;78042.47;;;24.99;51.21
20955;BME280;10636;19.390;-99.256;2022-08-14T01:26:28;78042.47;;;24.99;51.58
20955;BME280;10636;19.390;-99.256;2022-08-14T01:28:58;78044.38;;;24.96;51.48
20955;BME280;10636;19.390;-99.256;2022-08-14T01:31:28;78053.81;;;24.97;51.73
20955;BME280;10636;19.390;-99.256;2022-08-14T01:33:59;78050.44;;;24.97;51.59
20955;BME280;10636;19.390;-99.256;2022-08-14T01:36:30;78050.44;;;24.97;51.62
20955;BME280;10636;19.390;-99.256;2022-08-14T01:39:04;78053.13;;;24.97;51.53
20955;BME280;10636;19.390;-99.256;2022-08-14T01:41:34;78054.44;;;24.96;51.70
20955;BME280;10636;19.390;-99.256;2022-08-14T01:44:06;78057.19;;;24.98;51.63
20955;BME280;10636;19.390;-99.256;2022-08-14T01:46:38;78046.44;;;24.98;51.73
20955;BME280;10636;19.390;-99.256;2022-08-14T01:49:08;78055.88;;;24.99;51.65
20955;BME280;10636;19.390;-99.256;2022-08-14T01:51:38;78055.88;;;24.99;52.17
20955;BME280;10636;19.390;-99.256;2022-08-14T01:54:09;78060.56;;;24.98;52.56
20955;BME280;10636;19.390;-99.256;2022-08-14T01:56:38;78055.13;;;24.96;52.30
20955;BME280;10636;19.390;-99.256;2022-08-14T01:59:08;78054.44;;;24.96;52.09
20955;BME280;10636;19.390;-99.256;2022-08-14T02:01:37;78057.72;;;24.94;52.40
20955;BME280;10636;19.390;-99.256;2022-08-14T02:04:05;78042.22;;;24.93;52.68
20955;BME280;10636;19.390;-99.256;2022-08-14T02:06:34;78036.78;;;24.91;53.11
20955;BME280;10636;19.390;-99.256;2022-08-14T02:09:05;78039.56;;;24.93;52.68
20955;BME280;10636;19.390;-99.256;2022-08-14T02:11:34;78048.28;;;24.93;52.70
20955;BME280;10636;19.390;-99.256;2022-08-14T02:14:04;78043.53;;;24.92;53.10
20955;BME280;10636;19.390;-99.256;2022-08-14T02:16:34;78056.94;;;24.92;52.87
20955;BME280;10636;19.390;-99.256;2022-08-14T02:19:05;78056.88;;;24.90;52.81
20955;BME280;10636;19.390;-99.256;2022-08-14T02:21:34;78062.25;;;24.90;52.68
20955;BME280;10636;19.390;-99.256;2022-08-14T02:24:05;78074.25;;;24.89;53.14
20955;BME280;10636;19.390;-99.256;2022-08-14T02:26:35;78074.88;;;24.87;53.06
20955;BME280;10636;19.390;-99.256;2022-08-14T02:29:05;78072.13;;;24.85;53.58
20955;BME280;10636;19.390;-99.256;2022-08-14T02:31:35;78075.56;;;24.88;53.77
20955;BME280;10636;19.390;-99.256;2022-08-14T02:34:06;78078.34;;;24.90;53.70
20955;BME280;10636;19.390;-99.256;2022-08-14T02:36:36;78084.41;;;24.90;54.05
20955;BME280;10636;19.390;-99.256;2022-08-14T02:39:10;78093.22;;;24.93;53.51
20955;BME280;10636;19.390;-99.256;2022-08-14T02:41:39;78097.88;;;24.92;53.42
20955;BME280;10636;19.390;-99.256;2022-08-14T02:44:09;78101.19;;;24.91;53.87
20955;BME280;10636;19.390;-99.256;2022-08-14T02:46:38;78107.06;;;24.87;54.00
20955;BME280;10636;19.390;-99.256;2022-08-14T02:49:10;78111.06;;;24.86;53.85
20955;BME280;10636;19.390;-99.256;2022-08-14T02:51:38;78104.84;;;24.82;54.32
20955;BME280;10636;19.390;-99.256;2022-08-14T02:54:09;78109.88;;;24.73;54.16
20955;BME280;10636;19.390;-99.256;2022-08-14T02:56:37;78108.38;;;24.86;54.55
20955;BME280;10636;19.390;-99.256;2022-08-14T02:59:07;78119.88;;;24.89;54.63
20955;BME280;10636;19.390;-99.256;2022-08-14T03:01:36;78122.53;;;24.89;54.54
20955;BME280;10636;19.390;-99.256;2022-08-14T03:04:06;78125.22;;;24.89;54.44
20955;BME280;10636;19.390;-99.256;2022-08-14T03:06:36;78126.53;;;24.88;53.89
20955;BME280;10636;19.390;-99.256;2022-08-14T03:09:05;78127.91;;;24.89;54.57
20955;BME280;10636;19.390;-99.256;2022-08-14T03:11:36;78139.34;;;24.89;54.24
20955;BME280;10636;19.390;-99.256;2022-08-14T03:14:05;78127.84;;;24.87;54.29
20955;BME280;10636;19.390;-99.256;2022-08-14T03:16:35;78135.97;;;24.89;54.46
20955;BME280;10636;19.390;-99.256;2022-08-14T03:19:04;78130.59;;;24.89;54.06
20955;BME280;10636;19.390;-99.256;2022-08-14T03:21:35;78141.31;;;24.89;54.52
20955;BME280;10636;19.390;-99.256;2022-08-14T03:24:05;78144.72;;;24.89;54.38
20955;BME280;10636;19.390;-99.256;2022-08-14T03:26:39;78152.06;;;24.89;53.78
20955;BME280;10636;19.390;-99.256;2022-08-14T03:29:09;78149.31;;;24.87;53.79
20955;BME280;10636;19.390;-99.256;2022-08-14T03:31:38;78153.97;;;24.86;53.60
20955;BME280;10636;19.390;-99.256;2022-08-14T03:34:07;78167.41;;;24.86;53.55
20955;BME280;10636;19.390;-99.256;2022-08-14T03:36:37;78168.00;;;24.85;54.07
20955;BME280;10636;19.390;-99.256;2022-08-14T03:39:09;78177.34;;;24.84;53.71
20955;BME280;10636;19.390;-99.256;2022-08-14T03:41:40;78184.09;;;24.85;54.04
20955;BME280;10636;19.390;-99.256;2022-08-14T03:44:08;78179.44;;;24.85;53.47
20955;BME280;10636;19.390;-99.256;2022-08-14T03:46:37;78181.41;;;24.85;53.87
20955;BME280;10636;19.390;-99.256;2022-08-14T03:49:08;78176.66;;;24.83;53.80
20955;BME280;10636;19.390;-99.256;2022-08-14T03:51:37;78186.09;;;24.84;53.34
20955;BME280;10636;19.390;-99.256;2022-08-14T03:54:07;78188.09;;;24.84;53.24
20955;BME280;10636;19.390;-99.256;2022-08-14T03:56:41;78184.00;;;24.83;53.70
20955;BME280;10636;19.390;-99.256;2022-08-14T03:59:11;78186.53;;;24.78;53.47
20955;BME280;10636;19.390;-99.256;2022-08-14T04:01:40;78185.13;;;24.77;53.57
20955;BME280;10636;19.390;-99.256;2022-08-14T04:04:09;78188.25;;;24.72;54.11
20955;BME280;10636;19.390;-99.256;2022-08-14T04:06:38;78184.97;;;24.73;54.12
20955;BME280;10636;19.390;-99.256;2022-08-14T04:09:07;78191.56;;;24.70;54.09
20955;BME280;10636;19.390;-99.256;2022-08-14T04:11:37;78190.84;;;24.70;53.67
20955;BME280;10636;19.390;-99.256;2022-08-14T04:14:10;78193.53;;;24.70;54.15
20955;BME280;10636;19.390;-99.256;2022-08-14T04:16:39;78206.34;;;24.71;54.36
20955;BME280;10636;19.390;-99.256;2022-08-14T04:19:13;78206.34;;;24.71;53.60
20955;BME280;10636;19.390;-99.256;2022-08-14T04:21:49;78208.34;;;24.71;53.90
20955;BME280;10636;19.390;-99.256;2022-08-14T04:24:17;78211.63;;;24.69;53.54
20955;BME280;10636;19.390;-99.256;2022-08-14T04:26:46;78211.63;;;24.69;53.87
20955;BME280;10636;19.390;-99.256;2022-08-14T04:29:19;78217.50;;;24.66;53.96
20955;BME280;10636;19.390;-99.256;2022-08-14T04:31:47;78220.88;;;24.66;53.70
20955;BME280;10636;19.390;-99.256;2022-08-14T04:34:16;78221.50;;;24.65;54.01
20955;BME280;10636;19.390;-99.256;2022-08-14T04:36:44;78223.66;;;24.68;53.35
20955;BME280;10636;19.390;-99.256;2022-08-14T04:39:30;78216.31;;;24.69;53.61
20955;BME280;10636;19.390;-99.256;2022-08-14T04:42:15;78223.66;;;24.68;53.65
20955;BME280;10636;19.390;-99.256;2022-08-14T04:45:02;78231.00;;;24.68;53.65
20955;BME280;10636;19.390;-99.256;2022-08-14T04:47:30;78230.31;;;24.67;53.11
20955;BME280;10636;19.390;-99.256;2022-08-14T04:50:16;78232.91;;;24.65;53.48
20955;BME280;10636;19.390;-99.256;2022-08-14T04:52:45;78236.19;;;24.64;53.01
20955;BME280;10636;19.390;-99.256;2022-08-14T04:55:14;78235.50;;;24.63;53.47
20955;BME280;10636;19.390;-99.256;2022-08-14T04:57:43;78233.41;;;24.62;53.26
20955;BME280;10636;19.390;-99.256;2022-08-14T05:00:16;78224.59;;;24.59;53.53
20955;BME280;10636;19.390;-99.256;2022-08-14T05:02:44;78230.66;;;24.60;53.49
20955;BME280;10636;19.390;-99.256;2022-08-14T05:05:13;78228.59;;;24.58;53.21
20955;BME280;10636;19.390;-99.256;2022-08-14T05:07:42;78215.19;;;24.58;53.16
20955;BME280;10636;19.390;-99.256;2022-08-14T05:10:10;78213.78;;;24.57;52.97
20955;BME280;10636;19.390;-99.256;2022-08-14T05:12:39;78215.78;;;24.57;53.38
20955;BME280;10636;19.390;-99.256;2022-08-14T05:15:08;78213.69;;;24.55;52.97
20955;BME280;10636;19.390;-99.256;2022-08-14T05:17:42;78225.72;;;24.54;53.23
20955;BME280;10636;19.390;-99.256;2022-08-14T05:20:13;78214.94;;;24.52;52.97
20955;BME280;10636;19.390;-99.256;2022-08-14T05:22:41;78218.97;;;24.53;52.99
20955;BME280;10636;19.390;-99.256;2022-08-14T05:25:10;78214.94;;;24.52;53.27
20955;BME280;10636;19.390;-99.256;2022-08-14T05:27:39;78214.94;;;24.52;52.97
20955;BME280;10636;19.390;-99.256;2022-08-14T05:30:09;78214.94;;;24.52;53.06
20955;BME280;10636;19.390;-99.256;2022-08-14T05:32:37;78208.16;;;24.51;53.08
20955;BME280;10636;19.390;-99.256;2022-08-14T05:35:08;78205.41;;;24.49;52.90
20955;BME280;10636;19.390;-99.256;2022-08-14T05:37:37;78212.75;;;24.48;53.29
20955;BME280;10636;19.390;-99.256;2022-08-14T05:40:08;78202.63;;;24.47;53.10
20955;BME280;10636;19.390;-99.256;2022-08-14T05:42:36;78208.00;;;24.47;52.48
20955;BME280;10636;19.390;-99.256;2022-08-14T05:45:06;78197.97;;;24.47;52.73
20955;BME280;10636;19.390;-99.256;2022-08-14T05:47:38;78197.28;;;24.47;52.95
20955;BME280;10636;19.390;-99.256;2022-08-14T05:50:10;78196.56;;;24.46;52.53
20955;BME280;10636;19.390;-99.256;2022-08-14T05:52:39;78183.88;;;24.47;53.03
20955;BME280;10636;19.390;-99.256;2022-08-14T05:55:09;78183.09;;;24.44;52.75
20955;BME280;10636;19.390;-99.256;2022-08-14T05:57:48;78186.38;;;24.43;52.98
20955;BME280;10636;19.390;-99.256;2022-08-14T06:00:19;78176.34;;;24.43;53.06
20955;BME280;10636;19.390;-99.256;2022-08-14T06:02:47;78178.34;;;24.43;52.87
20955;BME280;10636;19.390;-99.256;2022-08-14T06:05:18;78179.63;;;24.42;53.09
20955;BME280;10636;19.390;-99.256;2022-08-14T06:07:46;78185.00;;;24.42;52.60
20955;BME280;10636;19.390;-99.256;2022-08-14T06:10:15;78189.66;;;24.41;52.32
20955;BME280;10636;19.390;-99.256;2022-08-14T06:12:44;78189.66;;;24.41;52.87
20955;BME280;10636;19.390;-99.256;2022-08-14T06:15:12;78182.22;;;24.40;52.82
20955;BME280;10636;19.390;-99.256;2022-08-14T06:17:47;78181.53;;;24.39;52.68
20955;BME280;10636;19.390;-99.256;2022-08-14T06:20:18;78181.53;;;24.39;52.41
20955;BME280;10636;19.390;-99.256;2022-08-14T06:22:46;78190.88;;;24.38;52.38
20955;BME280;10636;19.390;-99.256;2022-08-14T06:25:15;78185.44;;;24.36;52.98
20955;BME280;10636;19.390;-99.256;2022-08-14T06:27:45;78182.03;;;24.36;52.45
20955;BME280;10636;19.390;-99.256;2022-08-14T06:30:15;78183.31;;;24.35;52.52
20955;BME280;10636;19.390;-99.256;2022-08-14T06:32:44;78188.59;;;24.33;52.90
20955;BME280;10636;19.390;-99.256;2022-08-14T06:35:14;78196.63;;;24.33;52.68
20955;BME280;10636;19.390;-99.256;2022-08-14T06:37:47;78189.97;;;24.34;52.81
20955;BME280;10636;19.390;-99.256;2022-08-14T06:40:18;78189.97;;;24.34;52.76
20955;BME280;10636;19.390;-99.256;2022-08-14T06:42:50;78177.69;;;24.29;52.54
20955;BME280;10636;19.390;-99.256;2022-08-14T06:45:18;78177.94;;;24.35;52.98
20955;BME280;10636;19.390;-99.256;2022-08-14T06:47:47;78183.91;;;24.33;52.88
20955;BME280;10636;19.390;-99.256;2022-08-14T06:50:17;78180.56;;;24.33;52.46
20955;BME280;10636;19.390;-99.256;2022-08-14T06:52:48;78178.56;;;24.33;52.59
20955;BME280;10636;19.390;-99.256;2022-08-14T06:55:16;78183.22;;;24.33;52.92
20955;BME280;10636;19.390;-99.256;2022-08-14T06:57:46;78177.88;;;24.33;52.61
20955;BME280;10636;19.390;-99.256;2022-08-14T07:00:17;78175.88;;;24.33;52.55
20955;BME280;10636;19.390;-99.256;2022-08-14T07:02:46;78181.84;;;24.32;52.53
20955;BME280;10636;19.390;-99.256;2022-08-14T07:05:32;78176.50;;;24.32;52.69
20955;BME280;10636;19.390;-99.256;2022-08-14T07:08:20;78179.06;;;24.30;52.80
20955;BME280;10636;19.390;-99.256;2022-08-14T07:10:53;78181.75;;;24.30;52.67
20955;BME280;10636;19.390;-99.256;2022-08-14T07:13:22;78172.16;;;24.24;52.50
20955;BME280;10636;19.390;-99.256;2022-08-14T07:15:51;78179.00;;;24.27;52.93
20955;BME280;10636;19.390;-99.256;2022-08-14T07:18:21;78181.06;;;24.29;52.93
20955;BME280;10636;19.390;-99.256;2022-08-14T07:20:50;78176.31;;;24.27;52.15
20955;BME280;10636;19.390;-99.256;2022-08-14T07:23:21;78164.09;;;24.24;52.80
20955;BME280;10636;19.390;-99.256;2022-08-14T07:25:52;78167.59;;;24.27;52.33
20955;BME280;10636;19.390;-99.256;2022-08-14T07:28:22;78166.91;;;24.26;52.55
20955;BME280;10636;19.390;-99.256;2022-08-14T07:30:52;78160.22;;;24.27;52.32
20955;BME280;10636;19.390;-99.256;2022-08-14T07:33:23;78157.56;;;24.27;52.82
20955;BME280;10636;19.390;-99.256;2022-08-14T07:35:54;78158.84;;;24.26;52.14
20955;BME280;10636;19.390;-99.256;2022-08-14T07:38:24;78151.41;;;24.25;52.56
20955;BME280;10636;19.390;-99.256;2022-08-14T07:40:53;78155.38;;;24.24;52.72
20955;BME280;10636;19.390;-99.256;2022-08-14T07:43:22;78157.38;;;24.23;52.59
20955;BME280;10636;19.390;-99.256;2022-08-14T07:45:51;78153.13;;;24.18;52.98
20955;BME280;10636;19.390;-99.256;2022-08-14T07:48:19;78158.69;;;24.22;52.56
20955;BME280;10636;19.390;-99.256;2022-08-14T07:50:48;78154.69;;;24.23;52.89
20955;BME280;10636;19.390;-99.256;2022-08-14T07:53:17;78149.34;;;24.23;52.18
20955;BME280;10636;19.390;-99.256;2022-08-14T07:55:48;78143.97;;;24.23;52.80
20955;BME280;10636;19.390;-99.256;2022-08-14T07:58:16;78138.63;;;24.23;52.18
20955;BME280;10636;19.390;-99.256;2022-08-14T08:00:45;78142.59;;;24.22;52.43
20955;BME280;10636;19.390;-99.256;2022-08-14T08:03:14;78139.84;;;24.20;52.63
20955;BME280;10636;19.390;-99.256;2022-08-14T08:05:45;78139.13;;;24.20;52.54
20955;BME280;10636;19.390;-99.256;2022-08-14T08:08:16;78135.75;;;24.19;52.53
20955;BME280;10636;19.390;-99.256;2022-08-14T08:10:46;78137.84;;;24.21;52.92
20955;BME280;10636;19.390;-99.256;2022-08-14T08:13:17;78137.75;;;24.19;52.66
20955;BME280;10636;19.390;-99.256;2022-08-14T08:15:47;78129.00;;;24.18;52.77
20955;BME280;10636;19.390;-99.256;2022-08-14T08:18:16;78123.66;;;24.18;52.50
20955;BME280;10636;19.390;-99.256;2022-08-14T08:20:45;78133.00;;;24.17;52.49
20955;BME280;10636;19.390;-99.256;2022-08-14T08:23:15;78127.63;;;24.17;52.20
20955;BME280;10636;19.390;-99.256;2022-08-14T08:25:47;78110.94;;;24.19;52.86
20955;BME280;10636;19.390;-99.256;2022-08-14T08:28:17;78106.88;;;24.18;52.34
20955;BME280;10636;19.390;-99.256;2022-08-14T08:30:48;78110.19;;;24.16;52.22
20955;BME280;10636;19.390;-99.256;2022-08-14T08:33:17;78107.50;;;24.16;52.66
20955;BME280;10636;19.390;-99.256;2022-08-14T08:35:47;78100.75;;;24.15;52.31
20955;BME280;10636;19.390;-99.256;2022-08-14T08:38:17;78100.75;;;24.15;52.36
20955;BME280;10636;19.390;-99.256;2022-08-14T08:40:49;78104.81;;;24.16;52.55
20955;BME280;10636;19.390;-99.256;2022-08-14T08:43:20;78091.44;;;24.16;52.76
20955;BME280;10636;19.390;-99.256;2022-08-14T08:45:56;78095.41;;;24.15;52.30
20955;BME280;10636;19.390;-99.256;2022-08-14T08:48:26;78093.41;;;24.16;52.70
20955;BME280;10636;19.390;-99.256;2022-08-14T08:50:56;78087.88;;;24.12;52.09
20955;BME280;10636;19.390;-99.256;2022-08-14T08:53:30;78083.28;;;24.14;52.77
20955;BME280;10636;19.390;-99.256;2022-08-14T08:56:01;78088.66;;;24.14;52.42
20955;BME280;10636;19.390;-99.256;2022-08-14T08:58:29;78087.97;;;24.14;52.53
20955;BME280;10636;19.390;-99.256;2022-08-14T09:00:59;78075.16;;;24.12;52.52
20955;BME280;10636;19.390;-99.256;2022-08-14T09:03:28;78069.13;;;24.12;52.12
20955;BME280;10636;19.390;-99.256;2022-08-14T09:05:58;78065.66;;;24.09;52.86
20955;BME280;10636;19.390;-99.256;2022-08-14T09:08:30;78071.00;;;24.09;52.61
20955;BME280;10636;19.390;-99.256;2022-08-14T09:11:02;78064.97;;;24.09;52.48
20955;BME280;10636;19.390;-99.256;2022-08-14T09:13:32;78056.06;;;24.04;52.59
20955;BME280;10636;19.390;-99.256;2022-08-14T09:16:01;78060.28;;;24.09;52.93
20955;BME280;10636;19.390;-99.256;2022-08-14T09:18:29;78058.22;;;24.08;52.93
20955;BME280;10636;19.390;-99.256;2022-08-14T09:20:58;78058.91;;;24.08;52.89
20955;BME280;10636;19.390;-99.256;2022-08-14T09:23:27;78054.19;;;24.07;52.68
20955;BME280;10636;19.390;-99.256;2022-08-14T09:25:55;78054.78;;;24.05;52.26
20955;BME280;10636;19.390;-99.256;2022-08-14T09:28:26;78054.69;;;24.03;53.06
20955;BME280;10636;19.390;-99.256;2022-08-14T09:30:55;78056.00;;;24.02;52.29
20955;BME280;10636;19.390;-99.256;2022-08-14T09:33:48;78054.63;;;24.01;52.55
20955;BME280;10636;19.390;-99.256;2022-08-14T09:39:25;78051.84;;;23.99;52.68
20955;BME280;10636;19.390;-99.256;2022-08-14T09:42:12;78054.44;;;23.97;52.44
20955;BME280;10636;19.390;-99.256;2022-08-14T09:44:55;78054.44;;;23.97;52.34
20955;BME280;10636;19.390;-99.256;2022-08-14T09:47:40;78059.72;;;23.95;52.82
20955;BME280;10636;19.390;-99.256;2022-08-14T09:50:20;78059.72;;;23.95;52.96
20955;BME280;10636;19.390;-99.256;2022-08-14T09:52:51;78048.91;;;23.93;52.91
20955;BME280;10636;19.390;-99.256;2022-08-14T09:55:21;78047.53;;;23.92;52.84
20955;BME280;10636;19.390;-99.256;2022-08-14T09:57:51;78049.50;;;23.91;52.71
20955;BME280;10636;19.390;-99.256;2022-08-14T10:00:35;78051.50;;;23.91;52.69
20955;BME280;10636;19.390;-99.256;2022-08-14T10:03:08;78035.00;;;23.81;52.58
20955;BME280;10636;19.390;-99.256;2022-08-14T10:05:37;78054.19;;;23.91;52.41
20955;BME280;10636;19.390;-99.256;2022-08-14T10:08:17;78053.50;;;23.90;52.88
20955;BME280;10636;19.390;-99.256;2022-08-14T10:10:46;78058.25;;;23.92;52.88
20955;BME280;10636;19.390;-99.256;2022-08-14T10:13:23;78052.88;;;23.92;52.57
20955;BME280;10636;19.390;-99.256;2022-08-14T10:15:58;78052.88;;;23.92;52.41
20955;BME280;10636;19.390;-99.256;2022-08-14T10:18:27;78058.94;;;23.92;52.44
20955;BME280;10636;19.390;-99.256;2022-08-14T10:20:59;78061.59;;;23.92;52.66
20955;BME280;10636;19.390;-99.256;2022-08-14T10:23:39;78061.53;;;23.90;52.58
20955;BME280;10636;19.390;-99.256;2022-08-14T10:26:13;78060.84;;;23.90;52.79
20955;BME280;10636;19.390;-99.256;2022-08-14T10:28:46;78071.56;;;23.90;52.24
20955;BME280;10636;19.390;-99.256;2022-08-14T10:31:24;78066.78;;;23.88;52.20
20955;BME280;10636;19.390;-99.256;2022-08-14T10:34:02;78068.78;;;23.88;52.71
20955;BME280;10636;19.390;-99.256;2022-08-14T10:36:32;78068.78;;;23.88;52.74
20955;BME280;10636;19.390;-99.256;2022-08-14T10:39:03;78068.78;;;23.88;52.89
20955;BME280;10636;19.390;-99.256;2022-08-14T10:41:37;78067.41;;;23.87;52.86
20955;BME280;10636;19.390;-99.256;2022-08-14T10:44:08;78076.81;;;23.88;52.17
20955;BME280;10636;19.390;-99.256;2022-08-14T10:46:44;78072.75;;;23.87;52.23
20955;BME280;10636;19.390;-99.256;2022-08-14T10:49:17;78066.72;;;23.86;52.25
20955;BME280;10636;19.390;-99.256;2022-08-14T10:51:57;78071.38;;;23.86;52.26
20955;BME280;10636;19.390;-99.256;2022-08-14T10:54:40;78083.47;;;23.87;52.25
20955;BME280;10636;19.390;-99.256;2022-08-14T10:57:19;78068.69;;;23.86;52.58
20955;BME280;10636;19.390;-99.256;2022-08-14T10:59:50;78078.72;;;23.85;52.35
20955;BME280;10636;19.390;-99.256;2022-08-14T11:02:27;78072.69;;;23.85;52.53
20955;BME280;10636;19.390;-99.256;2022-08-14T11:05:01;78074.66;;;23.84;52.26
20955;BME280;10636;19.390;-99.256;2022-08-14T11:07:30;78073.25;;;23.83;52.06
20955;BME280;10636;19.390;-99.256;2022-08-14T11:10:00;78072.56;;;23.83;52.70
20955;BME280;10636;19.390;-99.256;2022-08-14T11:12:40;78075.25;;;23.83;52.64
20955;BME280;10636;19.390;-99.256;2022-08-14T11:15:15;78073.88;;;23.82;52.67
20955;BME280;10636;19.390;-99.256;2022-08-14T11:17:47;78072.56;;;23.83;52.04
20955;BME280;10636;19.390;-99.256;2022-08-14T11:20:18;78065.16;;;23.81;52.54
20955;BME280;10636;19.390;-99.256;2022-08-14T11:22:50;78067.91;;;23.83;52.65
20955;BME280;10636;19.390;-99.256;2022-08-14T11:25:20;78072.56;;;23.83;52.23
20955;BME280;10636;19.390;-99.256;2022-08-14T11:27:52;78068.63;;;23.84;52.57
20955;BME280;10636;19.390;-99.256;2022-08-14T11:30:23;78067.91;;;23.83;52.39
20955;BME280;10636;19.390;-99.256;2022-08-14T11:32:53;78064.53;;;23.83;52.75
20955;BME280;10636;19.390;-99.256;2022-08-14T11:35:24;78065.84;;;23.82;51.99
20955;BME280;10636;19.390;-99.256;2022-08-14T11:37:54;78059.09;;;23.81;51.86
20955;BME280;10636;19.390;-99.256;2022-08-14T11:40:25;78061.19;;;23.82;51.81
20955;BME280;10636;19.390;-99.256;2022-08-14T11:42:54;78059.09;;;23.81;52.48
20955;BME280;10636;19.390;-99.256;2022-08-14T11:45:23;78057.72;;;23.80;52.34
20955;BME280;10636;19.390;-99.256;2022-08-14T11:47:54;78052.38;;;23.80;52.17
20955;BME280;10636;19.390;-99.256;2022-08-14T11:50:26;78064.47;;;23.81;52.35
20955;BME280;10636;19.390;-99.256;2022-08-14T11:52:56;78059.03;;;23.79;51.82
20955;BME280;10636;19.390;-99.256;2022-08-14T11:55:25;78059.03;;;23.79;51.99
20955;BME280;10636;19.390;-99.256;2022-08-14T11:58:04;78058.94;;;23.77;52.62
20955;BME280;10636;19.390;-99.256;2022-08-14T12:00:44;78066.97;;;23.77;52.31
20955;BME280;10636;19.390;-99.256;2022-08-14T12:03:14;78058.94;;;23.77;52.11
20955;BME280;10636;19.390;-99.256;2022-08-14T12:05:43;78061.53;;;23.74;52.77
20955;BME280;10636;19.390;-99.256;2022-08-14T12:08:12;78059.97;;;23.69;52.31
20955;BME280;10636;19.390;-99.256;2022-08-14T12:10:42;78072.25;;;23.74;52.44
20955;BME280;10636;19.390;-99.256;2022-08-14T12:13:12;78074.13;;;23.72;51.94
20955;BME280;10636;19.390;-99.256;2022-08-14T12:15:42;78072.06;;;23.70;52.42
20955;BME280;10636;19.390;-99.256;2022-08-14T12:18:13;78069.38;;;23.70;52.55
20955;BME280;10636;19.390;-99.256;2022-08-14T12:20:42;78072.06;;;23.70;52.51
20955;BME280;10636;19.390;-99.256;2022-08-14T12:23:20;78077.34;;;23.68;52.04
20955;BME280;10636;19.390;-99.256;2022-08-14T12:25:49;78081.41;;;23.69;51.98
20955;BME280;10636;19.390;-99.256;2022-08-14T12:28:17;78087.44;;;23.70;51.96
20955;BME280;10636;19.390;-99.256;2022-08-14T12:30:46;78081.41;;;23.69;52.31
20955;BME280;10636;19.390;-99.256;2022-08-14T12:33:24;78083.47;;;23.71;52.17
20955;BME280;10636;19.390;-99.256;2022-08-14T12:35:55;78084.16;;;23.71;51.99
20955;BME280;10636;19.390;-99.256;2022-08-14T12:38:34;78088.13;;;23.70;52.28
20955;BME280;10636;19.390;-99.256;2022-08-14T12:41:08;78088.13;;;23.70;51.67
20955;BME280;10636;19.390;-99.256;2022-08-14T12:43:47;78092.09;;;23.69;52.52
20955;BME280;10636;19.390;-99.256;2022-08-14T12:46:24;78081.41;;;23.69;51.89
20955;BME280;10636;19.390;-99.256;2022-08-14T12:48:56;78084.69;;;23.68;52.32
20955;BME280;10636;19.390;-99.256;2022-08-14T12:51:27;78094.78;;;23.69;51.71
20955;BME280;10636;19.390;-99.256;2022-08-14T12:53:57;78096.09;;;23.68;52.13
20955;BME280;10636;19.390;-99.256;2022-08-14T12:56:27;78100.03;;;23.67;51.81
20955;BME280;10636;19.390;-99.256;2022-08-14T12:58:57;78098.06;;;23.68;52.38
20955;BME280;10636;19.390;-99.256;2022-08-14T13:01:27;78104.00;;;23.66;52.17
20955;BME280;10636;19.390;-99.256;2022-08-14T13:04:08;78113.34;;;23.65;52.00